sensor_id;sensor_type;location;lat;lon;timestamp;P1;durP1;ratioP1;P2;durP2;ratioP2
23046;SDS011;11691;51.462;6.902;2022-07-06T00:02:00;5.03;;;1.88;;
23046;SDS011;11691;51.462;6.902;2022-07-06T00:04:26;3.95;;;1.50;;
23046;SDS011;11691;51.462;6.902;2022-07-06T00:06:52;4.15;;;1.83;;
23046;SDS011;11691;51.462;6.902;2022-07-06T00:09:18;2.90;;;1.60;;
23046;SDS011;11691;51.462;6.902;2022-07-06T00:11:44;2.95;;;1.73;;
23046;SDS011;11691;51.462;6.902;2022-07-06T00:14:10;5.18;;;1.45;;
23046;SDS011;11691;51.462;6.902;2022-07-06T00:16:36;3.78;;;1.40;;
23046;SDS011;11691;51.462;6.902;2022-07-06T00:19:02;6.50;;;1.50;;
23046;SDS011;11691;51.462;6.902;2022-07-06T00:21:28;2.70;;;1.35;;
23046;SDS011;11691;51.462;6.902;2022-07-06T00:23:54;2.78;;;1.45;;
23046;SDS011;11691;51.462;6.902;2022-07-06T00:26:20;2.60;;;1.40;;
23046;SDS011;11691;51.462;6.902;2022-07-06T00:28:46;3.25;;;1.40;;
23046;SDS011;11691;51.462;6.902;2022-07-06T00:31:12;3.20;;;1.30;;
23046;SDS011;11691;51.462;6.902;2022-07-06T00:33:38;5.68;;;1.50;;
23046;SDS011;11691;51.462;6.902;2022-07-06T00:36:04;1.42;;;1.25;;
23046;SDS011;11691;51.462;6.902;2022-07-06T00:38:31;4.22;;;1.40;;
23046;SDS011;11691;51.462;6.902;2022-07-06T00:40:57;3.60;;;1.35;;
23046;SDS011;11691;51.462;6.902;2022-07-06T00:43:23;4.45;;;1.80;;
23046;SDS011;11691;51.462;6.902;2022-07-06T00:45:49;2.50;;;1.23;;
23046;SDS011;11691;51.462;6.902;2022-07-06T00:48:15;3.45;;;1.38;;
23046;SDS011;11691;51.462;6.902;2022-07-06T00:50:41;3.25;;;1.40;;
23046;SDS011;11691;51.462;6.902;2022-07-06T00:53:07;2.45;;;1.30;;
23046;SDS011;11691;51.462;6.902;2022-07-06T00:55:35;1.60;;;1.20;;
23046;SDS011;11691;51.462;6.902;2022-07-06T00:58:02;3.28;;;1.30;;
23046;SDS011;11691;51.462;6.902;2022-07-06T01:00:29;2.35;;;0.95;;
23046;SDS011;11691;51.462;6.902;2022-07-06T01:02:55;3.90;;;1.08;;
23046;SDS011;11691;51.462;6.902;2022-07-06T01:05:21;4.13;;;1.40;;
23046;SDS011;11691;51.462;6.902;2022-07-06T01:07:48;2.58;;;1.25;;
23046;SDS011;11691;51.462;6.902;2022-07-06T01:10:16;4.53;;;1.05;;
23046;SDS011;11691;51.462;6.902;2022-07-06T01:12:43;3.90;;;1.25;;
23046;SDS011;11691;51.462;6.902;2022-07-06T01:15:10;4.30;;;1.20;;
23046;SDS011;11691;51.462;6.902;2022-07-06T01:17:40;3.67;;;1.40;;
23046;SDS011;11691;51.462;6.902;2022-07-06T01:20:17;4.03;;;1.20;;
23046;SDS011;11691;51.462;6.902;2022-07-06T01:22:44;5.15;;;1.35;;
23046;SDS011;11691;51.462;6.902;2022-07-06T01:25:10;2.42;;;1.10;;
23046;SDS011;11691;51.462;6.902;2022-07-06T01:27:37;2.42;;;1.10;;
23046;SDS011;11691;51.462;6.902;2022-07-06T01:30:10;4.38;;;1.15;;
23046;SDS011;11691;51.462;6.902;2022-07-06T01:32:38;2.90;;;1.25;;
23046;SDS011;11691;51.462;6.902;2022-07-06T01:35:08;5.60;;;1.10;;
23046;SDS011;11691;51.462;6.902;2022-07-06T01:37:36;2.22;;;1.15;;
23046;SDS011;11691;51.462;6.902;2022-07-06T01:40:03;1.85;;;1.00;;
23046;SDS011;11691;51.462;6.902;2022-07-06T01:42:30;2.95;;;1.35;;
23046;SDS011;11691;51.462;6.902;2022-07-06T01:44:56;5.38;;;1.27;;
23046;SDS011;11691;51.462;6.902;2022-07-06T01:47:22;2.75;;;0.95;;
23046;SDS011;11691;51.462;6.902;2022-07-06T01:49:48;4.30;;;1.40;;
23046;SDS011;11691;51.462;6.902;2022-07-06T01:52:14;7.93;;;2.00;;
23046;SDS011;11691;51.462;6.902;2022-07-06T01:54:41;3.38;;;1.10;;
23046;SDS011;11691;51.462;6.902;2022-07-06T01:57:06;4.68;;;1.38;;
23046;SDS011;11691;51.462;6.902;2022-07-06T01:59:32;5.07;;;1.40;;
23046;SDS011;11691;51.462;6.902;2022-07-06T02:01:59;3.30;;;1.55;;
23046;SDS011;11691;51.462;6.902;2022-07-06T02:04:25;2.97;;;1.58;;
23046;SDS011;11691;51.462;6.902;2022-07-06T02:06:51;3.13;;;1.40;;
23046;SDS011;11691;51.462;6.902;2022-07-06T02:09:17;7.05;;;1.98;;
23046;SDS011;11691;51.462;6.902;2022-07-06T02:11:43;4.20;;;1.60;;
23046;SDS011;11691;51.462;6.902;2022-07-06T02:14:09;3.13;;;1.55;;
23046;SDS011;11691;51.462;6.902;2022-07-06T02:16:35;6.57;;;1.75;;
23046;SDS011;11691;51.462;6.902;2022-07-06T02:19:01;2.55;;;1.58;;
23046;SDS011;11691;51.462;6.902;2022-07-06T02:21:27;3.60;;;1.83;;
23046;SDS011;11691;51.462;6.902;2022-07-06T02:23:53;3.63;;;1.63;;
23046;SDS011;11691;51.462;6.902;2022-07-06T02:26:19;3.83;;;1.90;;
23046;SDS011;11691;51.462;6.902;2022-07-06T02:28:45;3.67;;;1.55;;
23046;SDS011;11691;51.462;6.902;2022-07-06T02:31:12;5.13;;;1.70;;
23046;SDS011;11691;51.462;6.902;2022-07-06T02:33:39;5.63;;;2.08;;
23046;SDS011;11691;51.462;6.902;2022-07-06T02:36:05;7.15;;;1.77;;
23046;SDS011;11691;51.462;6.902;2022-07-06T02:38:31;4.22;;;1.50;;
23046;SDS011;11691;51.462;6.902;2022-07-06T02:40:57;5.57;;;1.88;;
23046;SDS011;11691;51.462;6.902;2022-07-06T02:43:23;4.95;;;1.83;;
23046;SDS011;11691;51.462;6.902;2022-07-06T02:45:49;4.55;;;1.70;;
23046;SDS011;11691;51.462;6.902;2022-07-06T02:48:15;5.43;;;1.80;;
23046;SDS011;11691;51.462;6.902;2022-07-06T02:50:42;5.65;;;1.95;;
23046;SDS011;11691;51.462;6.902;2022-07-06T02:53:08;4.18;;;2.00;;
23046;SDS011;11691;51.462;6.902;2022-07-06T02:55:34;5.18;;;1.88;;
23046;SDS011;11691;51.462;6.902;2022-07-06T02:58:00;2.78;;;1.65;;
23046;SDS011;11691;51.462;6.902;2022-07-06T03:00:26;6.85;;;1.98;;
23046;SDS011;11691;51.462;6.902;2022-07-06T03:02:52;6.55;;;2.90;;
23046;SDS011;11691;51.462;6.902;2022-07-06T03:05:18;3.70;;;2.00;;
23046;SDS011;11691;51.462;6.902;2022-07-06T03:07:44;2.85;;;1.60;;
23046;SDS011;11691;51.462;6.902;2022-07-06T03:10:10;6.13;;;1.73;;
23046;SDS011;11691;51.462;6.902;2022-07-06T03:12:36;3.85;;;2.10;;
23046;SDS011;11691;51.462;6.902;2022-07-06T03:15:02;5.75;;;2.10;;
23046;SDS011;11691;51.462;6.902;2022-07-06T03:17:28;5.60;;;2.00;;
23046;SDS011;11691;51.462;6.902;2022-07-06T03:19:54;4.63;;;1.80;;
23046;SDS011;11691;51.462;6.902;2022-07-06T03:22:20;8.65;;;2.30;;
23046;SDS011;11691;51.462;6.902;2022-07-06T03:24:46;2.75;;;1.80;;
23046;SDS011;11691;51.462;6.902;2022-07-06T03:27:12;7.40;;;3.15;;
23046;SDS011;11691;51.462;6.902;2022-07-06T03:29:38;6.60;;;3.03;;
23046;SDS011;11691;51.462;6.902;2022-07-06T03:32:04;10.75;;;4.07;;
23046;SDS011;11691;51.462;6.902;2022-07-06T03:34:30;9.07;;;3.72;;
23046;SDS011;11691;51.462;6.902;2022-07-06T03:36:56;10.13;;;3.90;;
23046;SDS011;11691;51.462;6.902;2022-07-06T03:39:22;8.18;;;4.05;;
23046;SDS011;11691;51.462;6.902;2022-07-06T03:41:48;8.10;;;4.22;;
23046;SDS011;11691;51.462;6.902;2022-07-06T03:44:14;8.68;;;3.80;;
23046;SDS011;11691;51.462;6.902;2022-07-06T03:46:40;7.13;;;3.50;;
23046;SDS011;11691;51.462;6.902;2022-07-06T03:49:06;10.60;;;3.88;;
23046;SDS011;11691;51.462;6.902;2022-07-06T03:51:32;9.05;;;3.90;;
23046;SDS011;11691;51.462;6.902;2022-07-06T03:53:57;11.15;;;4.70;;
23046;SDS011;11691;51.462;6.902;2022-07-06T03:56:23;6.72;;;4.18;;
23046;SDS011;11691;51.462;6.902;2022-07-06T03:58:59;9.48;;;4.28;;
23046;SDS011;11691;51.462;6.902;2022-07-06T04:01:25;10.27;;;4.53;;
23046;SDS011;11691;51.462;6.902;2022-07-06T04:03:52;13.15;;;5.15;;
23046;SDS011;11691;51.462;6.902;2022-07-06T04:06:18;12.20;;;4.60;;
23046;SDS011;11691;51.462;6.902;2022-07-06T04:08:44;12.10;;;4.47;;
23046;SDS011;11691;51.462;6.902;2022-07-06T04:11:10;7.63;;;4.30;;
23046;SDS011;11691;51.462;6.902;2022-07-06T04:13:35;9.02;;;3.90;;
23046;SDS011;11691;51.462;6.902;2022-07-06T04:16:04;11.77;;;4.60;;
23046;SDS011;11691;51.462;6.902;2022-07-06T04:18:30;9.40;;;4.15;;
23046;SDS011;11691;51.462;6.902;2022-07-06T04:20:56;9.90;;;4.32;;
23046;SDS011;11691;51.462;6.902;2022-07-06T04:23:22;8.65;;;3.92;;
23046;SDS011;11691;51.462;6.902;2022-07-06T04:25:48;9.85;;;4.15;;
23046;SDS011;11691;51.462;6.902;2022-07-06T04:28:14;6.88;;;3.85;;
23046;SDS011;11691;51.462;6.902;2022-07-06T04:30:40;9.25;;;4.45;;
23046;SDS011;11691;51.462;6.902;2022-07-06T04:33:06;8.38;;;3.92;;
23046;SDS011;11691;51.462;6.902;2022-07-06T04:35:32;9.48;;;4.40;;
23046;SDS011;11691;51.462;6.902;2022-07-06T04:37:58;10.25;;;4.70;;
23046;SDS011;11691;51.462;6.902;2022-07-06T04:40:24;9.18;;;4.05;;
23046;SDS011;11691;51.462;6.902;2022-07-06T04:42:50;12.38;;;4.72;;
23046;SDS011;11691;51.462;6.902;2022-07-06T04:45:16;9.75;;;4.07;;
23046;SDS011;11691;51.462;6.902;2022-07-06T04:47:42;9.40;;;4.50;;
23046;SDS011;11691;51.462;6.902;2022-07-06T04:50:09;10.10;;;4.22;;
23046;SDS011;11691;51.462;6.902;2022-07-06T04:52:36;7.32;;;3.70;;
23046;SDS011;11691;51.462;6.902;2022-07-06T04:55:02;8.27;;;3.97;;
23046;SDS011;11691;51.462;6.902;2022-07-06T04:57:30;9.60;;;3.72;;
23046;SDS011;11691;51.462;6.902;2022-07-06T04:59:56;8.18;;;3.60;;
23046;SDS011;11691;51.462;6.902;2022-07-06T05:02:22;8.35;;;3.33;;
23046;SDS011;11691;51.462;6.902;2022-07-06T05:04:48;10.00;;;3.78;;
23046;SDS011;11691;51.462;6.902;2022-07-06T05:07:14;9.43;;;3.92;;
23046;SDS011;11691;51.462;6.902;2022-07-06T05:09:40;7.28;;;3.83;;
23046;SDS011;11691;51.462;6.902;2022-07-06T05:12:08;9.10;;;3.70;;
23046;SDS011;11691;51.462;6.902;2022-07-06T05:14:34;7.28;;;3.45;;
23046;SDS011;11691;51.462;6.902;2022-07-06T05:17:01;6.72;;;3.15;;
23046;SDS011;11691;51.462;6.902;2022-07-06T05:19:27;7.72;;;2.90;;
23046;SDS011;11691;51.462;6.902;2022-07-06T05:21:53;5.97;;;2.35;;
23046;SDS011;11691;51.462;6.902;2022-07-06T05:24:19;4.40;;;1.60;;
23046;SDS011;11691;51.462;6.902;2022-07-06T05:26:45;5.40;;;1.95;;
23046;SDS011;11691;51.462;6.902;2022-07-06T05:29:10;8.80;;;2.03;;
23046;SDS011;11691;51.462;6.902;2022-07-06T05:31:36;7.07;;;1.70;;
23046;SDS011;11691;51.462;6.902;2022-07-06T05:34:02;5.15;;;1.70;;
23046;SDS011;11691;51.462;6.902;2022-07-06T05:36:27;3.42;;;1.23;;
23046;SDS011;11691;51.462;6.902;2022-07-06T05:38:54;6.05;;;1.60;;
23046;SDS011;11691;51.462;6.902;2022-07-06T05:41:20;4.57;;;1.45;;
23046;SDS011;11691;51.462;6.902;2022-07-06T05:43:46;6.90;;;1.73;;
23046;SDS011;11691;51.462;6.902;2022-07-06T05:46:12;2.72;;;1.08;;
23046;SDS011;11691;51.462;6.902;2022-07-06T05:48:38;5.53;;;1.30;;
23046;SDS011;11691;51.462;6.902;2022-07-06T05:51:22;5.68;;;1.50;;
23046;SDS011;11691;51.462;6.902;2022-07-06T05:53:48;4.25;;;1.30;;
23046;SDS011;11691;51.462;6.902;2022-07-06T05:56:14;5.95;;;1.40;;
23046;SDS011;11691;51.462;6.902;2022-07-06T05:58:40;3.65;;;1.50;;
23046;SDS011;11691;51.462;6.902;2022-07-06T06:01:06;5.00;;;1.33;;
23046;SDS011;11691;51.462;6.902;2022-07-06T06:03:32;5.45;;;1.20;;
23046;SDS011;11691;51.462;6.902;2022-07-06T06:05:58;3.25;;;1.40;;
23046;SDS011;11691;51.462;6.902;2022-07-06T06:08:24;3.03;;;0.98;;
23046;SDS011;11691;51.462;6.902;2022-07-06T06:10:51;4.65;;;1.27;;
23046;SDS011;11691;51.462;6.902;2022-07-06T06:13:17;3.65;;;0.93;;
23046;SDS011;11691;51.462;6.902;2022-07-06T06:15:43;4.50;;;1.52;;
23046;SDS011;11691;51.462;6.902;2022-07-06T06:18:09;2.75;;;1.13;;
23046;SDS011;11691;51.462;6.902;2022-07-06T06:20:34;3.42;;;1.00;;
23046;SDS011;11691;51.462;6.902;2022-07-06T06:23:00;2.72;;;1.13;;
23046;SDS011;11691;51.462;6.902;2022-07-06T06:27:55;5.82;;;1.40;;
23046;SDS011;11691;51.462;6.902;2022-07-06T06:30:21;5.28;;;1.08;;
23046;SDS011;11691;51.462;6.902;2022-07-06T06:32:47;5.78;;;1.15;;
23046;SDS011;11691;51.462;6.902;2022-07-06T06:35:13;4.05;;;1.25;;
23046;SDS011;11691;51.462;6.902;2022-07-06T06:37:39;3.22;;;1.02;;
23046;SDS011;11691;51.462;6.902;2022-07-06T06:40:05;5.45;;;1.10;;
23046;SDS011;11691;51.462;6.902;2022-07-06T06:42:32;8.18;;;1.50;;
23046;SDS011;11691;51.462;6.902;2022-07-06T06:45:00;1.95;;;0.80;;
23046;SDS011;11691;51.462;6.902;2022-07-06T06:47:26;3.53;;;1.10;;
23046;SDS011;11691;51.462;6.902;2022-07-06T06:49:51;4.30;;;1.27;;
23046;SDS011;11691;51.462;6.902;2022-07-06T06:52:17;6.68;;;1.25;;
23046;SDS011;11691;51.462;6.902;2022-07-06T06:54:43;4.38;;;1.45;;
23046;SDS011;11691;51.462;6.902;2022-07-06T06:57:09;6.10;;;1.25;;
23046;SDS011;11691;51.462;6.902;2022-07-06T06:59:35;3.22;;;1.08;;
23046;SDS011;11691;51.462;6.902;2022-07-06T07:02:01;4.30;;;0.90;;
23046;SDS011;11691;51.462;6.902;2022-07-06T07:04:27;6.20;;;0.88;;
23046;SDS011;11691;51.462;6.902;2022-07-06T07:06:55;8.15;;;1.17;;
23046;SDS011;11691;51.462;6.902;2022-07-06T07:09:21;6.95;;;1.27;;
23046;SDS011;11691;51.462;6.902;2022-07-06T07:11:47;4.80;;;1.25;;
23046;SDS011;11691;51.462;6.902;2022-07-06T07:14:13;6.53;;;1.25;;
23046;SDS011;11691;51.462;6.902;2022-07-06T07:16:39;5.55;;;1.10;;
23046;SDS011;11691;51.462;6.902;2022-07-06T07:19:05;3.95;;;0.75;;
23046;SDS011;11691;51.462;6.902;2022-07-06T07:21:31;6.50;;;1.10;;
23046;SDS011;11691;51.462;6.902;2022-07-06T07:23:57;2.97;;;0.80;;
23046;SDS011;11691;51.462;6.902;2022-07-06T07:26:23;6.57;;;1.10;;
23046;SDS011;11691;51.462;6.902;2022-07-06T07:28:49;5.68;;;0.82;;
23046;SDS011;11691;51.462;6.902;2022-07-06T07:31:15;3.08;;;0.73;;
23046;SDS011;11691;51.462;6.902;2022-07-06T07:33:41;5.85;;;0.60;;
23046;SDS011;11691;51.462;6.902;2022-07-06T07:36:07;2.28;;;0.73;;
23046;SDS011;11691;51.462;6.902;2022-07-06T07:38:33;6.35;;;0.70;;
23046;SDS011;11691;51.462;6.902;2022-07-06T07:40:59;2.55;;;0.70;;
23046;SDS011;11691;51.462;6.902;2022-07-06T07:43:24;4.88;;;0.70;;
23046;SDS011;11691;51.462;6.902;2022-07-06T07:45:50;2.17;;;0.60;;
23046;SDS011;11691;51.462;6.902;2022-07-06T07:48:16;2.65;;;0.60;;
23046;SDS011;11691;51.462;6.902;2022-07-06T07:50:42;3.25;;;0.75;;
23046;SDS011;11691;51.462;6.902;2022-07-06T07:53:09;3.05;;;0.70;;
23046;SDS011;11691;51.462;6.902;2022-07-06T07:55:35;6.22;;;1.00;;
23046;SDS011;11691;51.462;6.902;2022-07-06T07:58:01;0.95;;;0.40;;
23046;SDS011;11691;51.462;6.902;2022-07-06T08:00:27;2.38;;;0.50;;
23046;SDS011;11691;51.462;6.902;2022-07-06T08:02:53;2.88;;;0.50;;
23046;SDS011;11691;51.462;6.902;2022-07-06T08:05:19;1.90;;;0.70;;
23046;SDS011;11691;51.462;6.902;2022-07-06T08:07:45;3.40;;;1.08;;
23046;SDS011;11691;51.462;6.902;2022-07-06T08:10:11;3.35;;;0.75;;
23046;SDS011;11691;51.462;6.902;2022-07-06T08:12:37;1.35;;;0.60;;
23046;SDS011;11691;51.462;6.902;2022-07-06T08:15:04;1.58;;;0.60;;
23046;SDS011;11691;51.462;6.902;2022-07-06T08:17:30;3.17;;;0.68;;
23046;SDS011;11691;51.462;6.902;2022-07-06T08:19:56;1.83;;;0.30;;
23046;SDS011;11691;51.462;6.902;2022-07-06T08:22:22;2.15;;;0.63;;
23046;SDS011;11691;51.462;6.902;2022-07-06T08:24:47;0.73;;;0.40;;
23046;SDS011;11691;51.462;6.902;2022-07-06T08:27:14;1.20;;;0.47;;
23046;SDS011;11691;51.462;6.902;2022-07-06T08:29:40;2.17;;;0.63;;
23046;SDS011;11691;51.462;6.902;2022-07-06T08:32:06;2.80;;;0.68;;
23046;SDS011;11691;51.462;6.902;2022-07-06T08:34:31;1.92;;;0.80;;
23046;SDS011;11691;51.462;6.902;2022-07-06T08:36:57;4.28;;;0.80;;
23046;SDS011;11691;51.462;6.902;2022-07-06T08:39:23;2.72;;;0.60;;
23046;SDS011;11691;51.462;6.902;2022-07-06T08:41:49;1.77;;;0.57;;
23046;SDS011;11691;51.462;6.902;2022-07-06T08:44:16;3.33;;;0.80;;
23046;SDS011;11691;51.462;6.902;2022-07-06T08:46:43;3.95;;;1.17;;
23046;SDS011;11691;51.462;6.902;2022-07-06T08:49:12;3.58;;;0.80;;
23046;SDS011;11691;51.462;6.902;2022-07-06T08:51:38;3.28;;;0.73;;
23046;SDS011;11691;51.462;6.902;2022-07-06T08:54:06;1.40;;;0.68;;
23046;SDS011;11691;51.462;6.902;2022-07-06T08:56:33;2.38;;;0.60;;
23046;SDS011;11691;51.462;6.902;2022-07-06T08:58:58;2.53;;;0.70;;
23046;SDS011;11691;51.462;6.902;2022-07-06T09:01:25;3.90;;;0.50;;
23046;SDS011;11691;51.462;6.902;2022-07-06T09:03:51;2.58;;;0.63;;
23046;SDS011;11691;51.462;6.902;2022-07-06T09:06:23;4.78;;;0.80;;
23046;SDS011;11691;51.462;6.902;2022-07-06T09:08:50;1.27;;;0.50;;
23046;SDS011;11691;51.462;6.902;2022-07-06T09:11:18;1.08;;;0.40;;
23046;SDS011;11691;51.462;6.902;2022-07-06T09:13:44;2.40;;;0.43;;
23046;SDS011;11691;51.462;6.902;2022-07-06T09:16:11;3.78;;;0.80;;
23046;SDS011;11691;51.462;6.902;2022-07-06T09:18:38;2.63;;;0.60;;
23046;SDS011;11691;51.462;6.902;2022-07-06T09:21:04;2.17;;;0.80;;
23046;SDS011;11691;51.462;6.902;2022-07-06T09:23:30;2.25;;;0.60;;
23046;SDS011;11691;51.462;6.902;2022-07-06T09:25:56;2.25;;;1.10;;
23046;SDS011;11691;51.462;6.902;2022-07-06T09:28:22;1.35;;;0.40;;
23046;SDS011;11691;51.462;6.902;2022-07-06T09:30:49;1.45;;;0.50;;
23046;SDS011;11691;51.462;6.902;2022-07-06T09:33:17;1.88;;;0.70;;
23046;SDS011;11691;51.462;6.902;2022-07-06T09:35:43;1.95;;;0.70;;
23046;SDS011;11691;51.462;6.902;2022-07-06T09:38:11;3.28;;;0.80;;
23046;SDS011;11691;51.462;6.902;2022-07-06T09:40:38;3.42;;;0.68;;
23046;SDS011;11691;51.462;6.902;2022-07-06T09:45:38;2.88;;;0.57;;
23046;SDS011;11691;51.462;6.902;2022-07-06T09:48:14;2.25;;;0.52;;
23046;SDS011;11691;51.462;6.902;2022-07-06T09:50:56;4.38;;;0.68;;
23046;SDS011;11691;51.462;6.902;2022-07-06T09:53:23;2.63;;;0.70;;
23046;SDS011;11691;51.462;6.902;2022-07-06T09:55:50;3.03;;;0.60;;
23046;SDS011;11691;51.462;6.902;2022-07-06T09:58:17;3.08;;;0.70;;
23046;SDS011;11691;51.462;6.902;2022-07-06T10:00:44;3.17;;;0.80;;
23046;SDS011;11691;51.462;6.902;2022-07-06T10:03:11;2.95;;;0.80;;
23046;SDS011;11691;51.462;6.902;2022-07-06T10:05:38;2.35;;;0.60;;
23046;SDS011;11691;51.462;6.902;2022-07-06T10:08:04;5.03;;;0.75;;
23046;SDS011;11691;51.462;6.902;2022-07-06T10:10:34;2.85;;;0.75;;
23046;SDS011;11691;51.462;6.902;2022-07-06T10:13:00;3.03;;;1.00;;
23046;SDS011;11691;51.462;6.902;2022-07-06T10:15:29;5.22;;;1.30;;
23046;SDS011;11691;51.462;6.902;2022-07-06T10:18:02;2.40;;;0.77;;
23046;SDS011;11691;51.462;6.902;2022-07-06T10:20:31;3.83;;;0.80;;
23046;SDS011;11691;51.462;6.902;2022-07-06T10:23:01;2.70;;;0.70;;
23046;SDS011;11691;51.462;6.902;2022-07-06T10:25:28;4.60;;;1.13;;
23046;SDS011;11691;51.462;6.902;2022-07-06T10:27:55;4.35;;;1.15;;
23046;SDS011;11691;51.462;6.902;2022-07-06T10:30:21;5.28;;;1.35;;
23046;SDS011;11691;51.462;6.902;2022-07-06T10:32:49;6.78;;;1.15;;
23046;SDS011;11691;51.462;6.902;2022-07-06T10:35:18;5.57;;;1.15;;
23046;SDS011;11691;51.462;6.902;2022-07-06T10:37:44;4.25;;;1.20;;
23046;SDS011;11691;51.462;6.902;2022-07-06T10:40:13;3.78;;;1.00;;
23046;SDS011;11691;51.462;6.902;2022-07-06T10:42:59;2.75;;;1.10;;
23046;SDS011;11691;51.462;6.902;2022-07-06T10:50:36;3.20;;;1.02;;
23046;SDS011;11691;51.462;6.902;2022-07-06T10:53:02;1.02;;;0.70;;
23046;SDS011;11691;51.462;6.902;2022-07-06T10:55:35;2.17;;;1.00;;
23046;SDS011;11691;51.462;6.902;2022-07-06T10:58:03;2.22;;;1.08;;
23046;SDS011;11691;51.462;6.902;2022-07-06T11:08:56;1.48;;;0.77;;
23046;SDS011;11691;51.462;6.902;2022-07-06T11:14:01;4.15;;;0.80;;
23046;SDS011;11691;51.462;6.902;2022-07-06T11:16:33;5.47;;;0.95;;
23046;SDS011;11691;51.462;6.902;2022-07-06T11:19:03;3.80;;;1.10;;
23046;SDS011;11691;51.462;6.902;2022-07-06T11:24:02;1.77;;;0.50;;
23046;SDS011;11691;51.462;6.902;2022-07-06T11:26:30;2.25;;;0.50;;
23046;SDS011;11691;51.462;6.902;2022-07-06T11:28:56;1.10;;;0.65;;
23046;SDS011;11691;51.462;6.902;2022-07-06T11:31:24;5.60;;;0.55;;
23046;SDS011;11691;51.462;6.902;2022-07-06T11:33:50;4.55;;;0.47;;
23046;SDS011;11691;51.462;6.902;2022-07-06T11:36:19;3.05;;;0.60;;
23046;SDS011;11691;51.462;6.902;2022-07-06T11:38:46;1.80;;;0.60;;
23046;SDS011;11691;51.462;6.902;2022-07-06T11:41:13;4.53;;;0.75;;
23046;SDS011;11691;51.462;6.902;2022-07-06T11:43:40;2.28;;;0.82;;
23046;SDS011;11691;51.462;6.902;2022-07-06T11:46:22;1.50;;;0.65;;
23046;SDS011;11691;51.462;6.902;2022-07-06T11:48:49;4.63;;;0.88;;
23046;SDS011;11691;51.462;6.902;2022-07-06T11:51:15;1.90;;;0.90;;
23046;SDS011;11691;51.462;6.902;2022-07-06T11:53:42;1.63;;;0.82;;
23046;SDS011;11691;51.462;6.902;2022-07-06T11:56:09;4.05;;;1.00;;
23046;SDS011;11691;51.462;6.902;2022-07-06T11:58:34;2.13;;;0.80;;
23046;SDS011;11691;51.462;6.902;2022-07-06T12:01:10;3.67;;;1.00;;
23046;SDS011;11691;51.462;6.902;2022-07-06T12:03:37;3.50;;;0.90;;
23046;SDS011;11691;51.462;6.902;2022-07-06T12:06:06;4.82;;;1.08;;
23046;SDS011;11691;51.462;6.902;2022-07-06T12:08:40;2.95;;;0.90;;
23046;SDS011;11691;51.462;6.902;2022-07-06T12:11:10;2.30;;;0.80;;
23046;SDS011;11691;51.462;6.902;2022-07-06T12:13:38;3.05;;;0.98;;
23046;SDS011;11691;51.462;6.902;2022-07-06T12:16:14;4.47;;;1.02;;
23046;SDS011;11691;51.462;6.902;2022-07-06T12:18:41;3.03;;;0.88;;
23046;SDS011;11691;51.462;6.902;2022-07-06T12:21:08;2.92;;;0.93;;
23046;SDS011;11691;51.462;6.902;2022-07-06T12:23:38;3.33;;;0.98;;
23046;SDS011;11691;51.462;6.902;2022-07-06T12:26:04;3.88;;;0.95;;
23046;SDS011;11691;51.462;6.902;2022-07-06T12:28:30;3.70;;;1.15;;
23046;SDS011;11691;51.462;6.902;2022-07-06T12:30:55;3.90;;;0.90;;
23046;SDS011;11691;51.462;6.902;2022-07-06T12:33:21;3.25;;;0.70;;
23046;SDS011;11691;51.462;6.902;2022-07-06T12:35:48;2.00;;;0.70;;
23046;SDS011;11691;51.462;6.902;2022-07-06T12:38:20;3.80;;;0.70;;
23046;SDS011;11691;51.462;6.902;2022-07-06T12:40:48;4.22;;;1.60;;
23046;SDS011;11691;51.462;6.902;2022-07-06T12:43:33;2.15;;;0.70;;
23046;SDS011;11691;51.462;6.902;2022-07-06T12:46:00;3.85;;;0.90;;
23046;SDS011;11691;51.462;6.902;2022-07-06T12:48:52;2.53;;;0.70;;
23046;SDS011;11691;51.462;6.902;2022-07-06T12:51:19;4.15;;;0.73;;
23046;SDS011;11691;51.462;6.902;2022-07-06T12:53:45;3.50;;;0.70;;
23046;SDS011;11691;51.462;6.902;2022-07-06T12:56:11;2.00;;;0.73;;
23046;SDS011;11691;51.462;6.902;2022-07-06T12:58:38;2.78;;;0.60;;
23046;SDS011;11691;51.462;6.902;2022-07-06T13:01:04;3.33;;;0.80;;
23046;SDS011;11691;51.462;6.902;2022-07-06T13:03:39;1.67;;;0.68;;
23046;SDS011;11691;51.462;6.902;2022-07-06T13:06:06;2.03;;;0.60;;
23046;SDS011;11691;51.462;6.902;2022-07-06T13:08:32;3.38;;;0.60;;
23046;SDS011;11691;51.462;6.902;2022-07-06T13:10:58;2.50;;;0.57;;
23046;SDS011;11691;51.462;6.902;2022-07-06T13:13:24;2.53;;;0.90;;
23046;SDS011;11691;51.462;6.902;2022-07-06T13:15:51;4.00;;;1.10;;
23046;SDS011;11691;51.462;6.902;2022-07-06T13:18:16;3.50;;;1.00;;
23046;SDS011;11691;51.462;6.902;2022-07-06T13:20:44;3.75;;;0.90;;
23046;SDS011;11691;51.462;6.902;2022-07-06T13:23:10;3.05;;;1.10;;
23046;SDS011;11691;51.462;6.902;2022-07-06T13:25:36;3.00;;;1.10;;
23046;SDS011;11691;51.462;6.902;2022-07-06T13:28:02;3.03;;;0.80;;
23046;SDS011;11691;51.462;6.902;2022-07-06T13:30:28;3.47;;;1.02;;
23046;SDS011;11691;51.462;6.902;2022-07-06T13:32:54;3.10;;;0.77;;
23046;SDS011;11691;51.462;6.902;2022-07-06T13:35:21;3.78;;;0.70;;
23046;SDS011;11691;51.462;6.902;2022-07-06T13:37:47;4.00;;;0.90;;
23046;SDS011;11691;51.462;6.902;2022-07-06T13:40:15;2.65;;;0.93;;
23046;SDS011;11691;51.462;6.902;2022-07-06T13:42:41;2.03;;;0.77;;
23046;SDS011;11691;51.462;6.902;2022-07-06T13:45:07;4.47;;;0.95;;
23046;SDS011;11691;51.462;6.902;2022-07-06T13:47:33;1.63;;;0.68;;
23046;SDS011;11691;51.462;6.902;2022-07-06T13:49:59;2.05;;;0.70;;
23046;SDS011;11691;51.462;6.902;2022-07-06T13:52:25;5.15;;;0.75;;
23046;SDS011;11691;51.462;6.902;2022-07-06T13:54:51;3.13;;;0.60;;
23046;SDS011;11691;51.462;6.902;2022-07-06T13:57:17;2.25;;;0.80;;
23046;SDS011;11691;51.462;6.902;2022-07-06T13:59:43;4.97;;;1.02;;
23046;SDS011;11691;51.462;6.902;2022-07-06T14:02:11;3.10;;;0.77;;
23046;SDS011;11691;51.462;6.902;2022-07-06T14:04:37;2.10;;;0.93;;
23046;SDS011;11691;51.462;6.902;2022-07-06T14:07:04;1.60;;;0.50;;
23046;SDS011;11691;51.462;6.902;2022-07-06T14:09:30;2.47;;;0.80;;
23046;SDS011;11691;51.462;6.902;2022-07-06T14:11:56;1.08;;;0.65;;
23046;SDS011;11691;51.462;6.902;2022-07-06T14:14:21;3.35;;;0.60;;
23046;SDS011;11691;51.462;6.902;2022-07-06T14:16:48;2.05;;;0.60;;
23046;SDS011;11691;51.462;6.902;2022-07-06T14:19:14;2.90;;;0.70;;
23046;SDS011;11691;51.462;6.902;2022-07-06T14:21:40;2.70;;;0.70;;
23046;SDS011;11691;51.462;6.902;2022-07-06T14:24:06;1.70;;;0.70;;
23046;SDS011;11691;51.462;6.902;2022-07-06T14:26:32;2.67;;;0.63;;
23046;SDS011;11691;51.462;6.902;2022-07-06T14:28:58;3.53;;;0.95;;
23046;SDS011;11691;51.462;6.902;2022-07-06T14:31:24;2.22;;;0.80;;
23046;SDS011;11691;51.462;6.902;2022-07-06T14:33:50;4.53;;;1.20;;
23046;SDS011;11691;51.462;6.902;2022-07-06T14:36:17;4.95;;;1.00;;
23046;SDS011;11691;51.462;6.902;2022-07-06T14:38:43;3.65;;;0.90;;
23046;SDS011;11691;51.462;6.902;2022-07-06T14:41:08;3.70;;;0.98;;
23046;SDS011;11691;51.462;6.902;2022-07-06T14:43:34;2.65;;;1.17;;
23046;SDS011;11691;51.462;6.902;2022-07-06T14:46:01;1.48;;;0.52;;
23046;SDS011;11691;51.462;6.902;2022-07-06T14:48:27;1.65;;;0.50;;
23046;SDS011;11691;51.462;6.902;2022-07-06T14:50:52;4.60;;;0.82;;
23046;SDS011;11691;51.462;6.902;2022-07-06T14:53:18;1.90;;;0.70;;
23046;SDS011;11691;51.462;6.902;2022-07-06T14:55:45;3.28;;;0.90;;
23046;SDS011;11691;51.462;6.902;2022-07-06T14:58:11;2.70;;;0.60;;
23046;SDS011;11691;51.462;6.902;2022-07-06T15:00:37;2.83;;;0.93;;
23046;SDS011;11691;51.462;6.902;2022-07-06T15:03:02;6.75;;;0.88;;
23046;SDS011;11691;51.462;6.902;2022-07-06T15:05:29;2.92;;;0.63;;
23046;SDS011;11691;51.462;6.902;2022-07-06T15:07:55;3.10;;;0.50;;
23046;SDS011;11691;51.462;6.902;2022-07-06T15:10:21;4.05;;;0.73;;